createdAt,value
2022-11-05T00:00:33.785Z,94239.59
2022-11-05T00:02:53.994Z,94251.56
2022-11-05T00:05:14.084Z,94238.91
2022-11-05T00:07:37.066Z,94225.75
2022-11-05T00:09:39.329Z,94233.38
2022-11-05T00:11:59.409Z,94249.59
2022-11-05T00:14:19.547Z,94243.59
2022-11-05T00:16:39.464Z,94249.31
2022-11-05T00:18:41.080Z,94253.00
2022-11-05T00:20:42.686Z,94240.75
2022-11-05T00:23:02.957Z,94233.13
2022-11-05T00:25:17.011Z,94240.66
2022-11-05T00:27:18.656Z,94234.19
2022-11-05T00:29:20.288Z,94221.66
2022-11-05T00:31:21.844Z,94217.34
2022-11-05T00:33:23.388Z,94219.16
2022-11-05T00:35:25.175Z,94210.47
2022-11-05T00:37:30.187Z,94232.13
2022-11-05T00:39:31.794Z,94234.22
2022-11-05T00:41:33.440Z,94233.56
2022-11-05T00:43:53.753Z,94227.66
2022-11-05T00:45:55.489Z,94219.75
2022-11-05T00:48:15.864Z,94218.63
2022-11-05T00:50:21.704Z,94209.00
2022-11-05T00:52:41.982Z,94199.94
2022-11-05T00:54:43.904Z,94210.69
2022-11-05T00:56:45.533Z,94210.47
2022-11-05T00:58:47.146Z,94211.00
2022-11-05T01:00:50.778Z,94201.09
2022-11-05T01:02:52.561Z,94202.44
2022-11-05T01:04:54.256Z,94214.47
2022-11-05T01:06:55.904Z,94204.50
2022-11-05T01:08:57.512Z,94200.06
2022-11-05T01:10:59.436Z,94202.88
2022-11-05T01:13:01.135Z,94195.53
2022-11-05T01:15:02.910Z,94201.81
2022-11-05T01:17:04.542Z,94207.13
2022-11-05T01:19:08.626Z,94188.44
2022-11-05T01:21:14.581Z,94184.47
2022-11-05T01:23:16.657Z,94191.81
2022-11-05T01:25:18.627Z,94185.81
2022-11-05T01:27:20.292Z,94174.56
2022-11-05T01:29:21.900Z,94175.09
2022-11-05T01:31:24.189Z,94182.44
2022-11-05T01:33:25.792Z,94175.25
2022-11-05T01:35:27.408Z,94176.50
2022-11-05T01:37:29.126Z,94169.06
2022-11-05T01:39:30.733Z,94161.19
2022-11-05T01:41:32.383Z,94156.41
2022-11-05T01:43:46.018Z,94155.75
2022-11-05T01:45:50.315Z,94147.53
2022-11-05T01:48:03.273Z,94145.34
2022-11-05T01:50:31.135Z,94148.50
2022-11-05T01:52:34.124Z,94144.34
2022-11-05T01:54:36.075Z,94142.00
2022-11-05T01:56:44.311Z,94144.75
2022-11-05T01:59:02.817Z,94149.63
2022-11-05T02:01:04.455Z,94147.06
2022-11-05T02:03:06.414Z,94143.00
2022-11-05T02:05:08.358Z,94136.66
2022-11-05T02:07:11.196Z,94139.84
2022-11-05T02:09:18.236Z,94139.84
2022-11-05T02:11:20.050Z,94134.25
2022-11-05T02:13:21.675Z,94140.94
2022-11-05T02:15:39.103Z,94150.00
2022-11-05T02:18:01.016Z,94151.00
2022-11-05T02:20:24.026Z,94133.22
2022-11-05T02:23:10.922Z,94139.06
2022-11-05T02:25:29.206Z,94136.59
2022-11-05T02:28:15.522Z,94134.34
2022-11-05T02:30:35.845Z,94135.16
2022-11-05T02:32:55.516Z,94132.97
2022-11-05T02:35:18.545Z,94139.50
2022-11-05T02:37:46.376Z,94134.66
2022-11-05T02:40:09.188Z,94132.19
2022-11-05T02:42:55.259Z,94134.97
2022-11-05T02:45:08.605Z,94135.16
2022-11-05T02:47:14.070Z,94135.34
2022-11-05T02:49:24.222Z,94140.06
2022-11-05T02:51:35.309Z,94135.75
2022-11-05T02:53:50.069Z,94141.75
2022-11-05T02:55:55.805Z,94141.56
2022-11-05T02:57:59.863Z,94142.03
2022-11-05T03:00:04.304Z,94141.16
2022-11-05T03:02:06.174Z,94148.66
2022-11-05T03:04:11.513Z,94142.84
2022-11-05T03:06:37.946Z,94143.91
2022-11-05T03:09:21.230Z,94152.69
2022-11-05T03:11:24.725Z,94153.91
2022-11-05T03:13:35.607Z,94157.63
2022-11-05T03:16:00.359Z,94150.28
2022-11-05T03:18:29.490Z,94144.75
2022-11-05T03:20:47.917Z,94145.28
2022-11-05T03:23:30.757Z,94141.72
2022-11-05T03:25:33.415Z,94152.31
2022-11-05T03:27:38.921Z,94147.69
2022-11-05T03:29:47.733Z,94138.19
2022-11-05T03:31:50.707Z,94148.50
2022-11-05T03:33:53.468Z,94160.56
2022-11-05T03:36:00.060Z,94169.91
2022-11-05T03:38:07.347Z,94170.34
2022-11-05T03:40:10.310Z,94171.16
2022-11-05T03:42:14.579Z,94171.63
2022-11-05T03:44:25.206Z,94173.88
2022-11-05T03:46:31.411Z,94172.88
2022-11-05T03:48:36.601Z,94183.56
2022-11-05T03:50:46.724Z,94179.50
2022-11-05T03:53:01.087Z,94180.88
2022-11-05T03:55:02.786Z,94184.94
2022-11-05T03:57:17.287Z,94181.13
2022-11-05T03:59:20.240Z,94197.53
2022-11-05T04:01:21.973Z,94192.25
2022-11-05T04:03:23.625Z,94191.28
2022-11-05T04:05:25.241Z,94187.47
2022-11-05T04:07:45.440Z,94185.00
2022-11-05T04:10:05.305Z,94189.81
2022-11-05T04:12:25.643Z,94183.13
2022-11-05T04:14:27.382Z,94181.22
2022-11-05T04:16:47.443Z,94179.44
2022-11-05T04:18:49.057Z,94183.84
2022-11-05T04:21:09.198Z,94191.00
2022-11-05T04:23:29.784Z,94187.19
2022-11-05T04:25:31.450Z,94186.03
2022-11-05T04:27:33.231Z,94176.34
2022-11-05T04:29:53.233Z,94193.72
2022-11-05T04:31:55.015Z,94200.44
2022-11-05T04:33:56.753Z,94208.94
2022-11-05T04:36:00.321Z,94214.47
2022-11-05T04:38:02.900Z,94213.09
2022-11-05T04:40:04.938Z,94210.47
2022-11-05T04:42:06.512Z,94217.72
2022-11-05T04:44:08.150Z,94216.28
2022-11-05T04:46:10.330Z,94213.19
2022-11-05T04:48:12.184Z,94217.34
2022-11-05T04:50:13.888Z,94209.41
2022-11-05T04:52:15.657Z,94219.47
2022-11-05T04:54:17.844Z,94214.31
2022-11-05T04:56:23.815Z,94209.69
2022-11-05T04:58:25.627Z,94206.34
2022-11-05T05:00:27.396Z,94193.47
2022-11-05T05:02:29.224Z,94206.84
2022-11-05T05:04:30.887Z,94209.03
2022-11-05T05:06:32.468Z,94204.84
2022-11-05T05:08:34.132Z,94209.31
2022-11-05T05:10:36.021Z,94212.75
2022-11-05T05:12:37.697Z,94212.00
2022-11-05T05:14:39.337Z,94226.66
2022-11-05T05:16:41.013Z,94217.56
2022-11-05T05:18:46.214Z,94224.47
2022-11-05T05:21:06.490Z,94221.78
2022-11-05T05:23:08.583Z,94228.22
2022-11-05T05:25:10.412Z,94228.78
2022-11-05T05:27:12.049Z,94245.00
2022-11-05T05:29:14.118Z,94241.50
2022-11-05T05:31:15.856Z,94245.06
2022-11-05T05:33:17.463Z,94250.50
2022-11-05T05:35:19.145Z,94255.84
2022-11-05T05:37:20.848Z,94255.94
2022-11-05T05:39:22.456Z,94260.31
2022-11-05T05:41:24.230Z,94258.50
2022-11-05T05:43:34.751Z,94267.09
2022-11-05T05:45:36.540Z,94265.38
2022-11-05T05:47:38.145Z,94264.47
2022-11-05T05:49:40.133Z,94268.84
2022-11-05T05:51:41.863Z,94272.19
2022-11-05T05:53:44.954Z,94265.00
2022-11-05T05:55:46.661Z,94278.56
2022-11-05T05:57:48.277Z,94264.88
2022-11-05T05:59:49.883Z,94259.91
2022-11-05T06:01:51.698Z,94261.72
2022-11-05T06:03:53.447Z,94269.47
2022-11-05T06:06:00.383Z,94267.94
2022-11-05T06:08:02.056Z,94264.19
2022-11-05T06:10:04.978Z,94264.47
2022-11-05T06:12:06.754Z,94260.66
2022-11-05T06:14:12.470Z,94258.28
2022-11-05T06:16:14.047Z,94262.97
2022-11-05T06:18:15.635Z,94256.41
2022-11-05T06:20:17.335Z,94259.72
2022-11-05T06:22:18.900Z,94255.19
2022-11-05T06:24:20.499Z,94259.03
2022-11-05T06:26:22.206Z,94263.94
2022-11-05T06:28:23.771Z,94258.91
2022-11-05T06:30:25.380Z,94256.69
2022-11-05T06:32:27.131Z,94252.03
2022-11-05T06:34:29.172Z,94254.28
2022-11-05T06:36:30.800Z,94252.66
2022-11-05T06:38:34.242Z,94252.63
2022-11-05T06:40:35.878Z,94253.03
2022-11-05T06:42:37.459Z,94253.88
2022-11-05T06:44:39.128Z,94262.81
2022-11-05T06:46:44.458Z,94255.72
2022-11-05T06:48:51.034Z,94259.84
2022-11-05T06:50:52.957Z,94251.00
2022-11-05T06:52:56.267Z,94239.69
2022-11-05T06:54:57.938Z,94238.31
2022-11-05T06:57:00.001Z,94233.28
2022-11-05T06:59:01.809Z,94241.03
2022-11-05T07:01:08.771Z,94236.00
2022-11-05T07:03:11.928Z,94239.31
2022-11-05T07:05:15.180Z,94233.59
2022-11-05T07:07:16.744Z,94226.88
2022-11-05T07:09:19.166Z,94227.63
2022-11-05T07:11:20.858Z,94240.19
2022-11-05T07:13:22.464Z,94234.19
2022-11-05T07:15:24.038Z,94216.06
2022-11-05T07:17:25.869Z,94213.03
2022-11-05T07:19:27.459Z,94229.50
2022-11-05T07:21:29.322Z,94226.13
2022-11-05T07:23:31.001Z,94233.16
2022-11-05T07:25:33.284Z,94229.59
2022-11-05T07:27:40.999Z,94222.19
2022-11-05T07:29:42.650Z,94230.53
2022-11-05T07:31:44.288Z,94232.75
2022-11-05T07:33:45.891Z,94228.34
2022-11-05T07:35:47.541Z,94226.13
2022-11-05T07:37:50.852Z,94215.34
2022-11-05T07:39:52.443Z,94217.34
2022-11-05T07:41:58.082Z,94220.22
2022-11-05T07:43:59.713Z,94211.34
2022-11-05T07:46:01.332Z,94205.88
2022-11-05T07:48:04.324Z,94209.31
2022-11-05T07:50:08.097Z,94206.50
2022-11-05T07:52:09.564Z,94211.41
2022-11-05T07:54:11.290Z,94216.69
2022-11-05T07:56:13.036Z,94205.47
2022-11-05T07:58:14.651Z,94209.69
2022-11-05T08:00:20.366Z,94201.56
2022-11-05T08:02:22.139Z,94203.19
2022-11-05T08:04:24.042Z,94202.00
2022-11-05T08:06:25.741Z,94196.97
2022-11-05T08:08:27.470Z,94195.94
2022-11-05T08:10:29.194Z,94193.09
2022-11-05T08:12:31.967Z,94196.72
2022-11-05T08:14:33.669Z,94195.97
2022-11-05T08:16:35.323Z,94196.94
2022-11-05T08:18:37.000Z,94194.47
2022-11-05T08:20:38.977Z,94196.28
2022-11-05T08:22:44.550Z,94195.25
2022-11-05T08:24:46.163Z,94195.03
2022-11-05T08:26:47.767Z,94199.66
2022-11-05T08:28:49.321Z,94196.59
2022-11-05T08:30:56.217Z,94208.44
2022-11-05T08:32:59.186Z,94191.41
2022-11-05T08:35:00.782Z,94197.09
2022-11-05T08:37:02.440Z,94198.38
2022-11-05T08:39:04.350Z,94186.97
2022-11-05T08:41:06.292Z,94191.81
2022-11-05T08:43:10.795Z,94192.84
2022-11-05T08:45:12.535Z,94191.81
2022-11-05T08:47:14.147Z,94191.81
2022-11-05T08:49:15.752Z,94200.00
2022-11-05T08:51:17.332Z,94195.94
2022-11-05T08:53:19.049Z,94187.63
2022-11-05T08:55:20.661Z,94191.47
2022-11-05T08:57:22.265Z,94195.56
2022-11-05T08:59:23.988Z,94192.69
2022-11-05T09:01:25.668Z,94190.91
2022-11-05T09:03:27.374Z,94188.88
2022-11-05T09:05:30.135Z,94178.69
2022-11-05T09:07:31.745Z,94186.59
2022-11-05T09:09:33.421Z,94176.44
2022-11-05T09:12:05.404Z,94182.13
2022-11-05T09:13:56.601Z,94181.09
2022-11-05T09:15:58.976Z,94181.25
2022-11-05T09:18:00.639Z,94182.91
2022-11-05T09:20:04.006Z,94181.31
2022-11-05T09:22:05.690Z,94177.00
2022-11-05T09:24:07.613Z,94175.34
2022-11-05T09:26:10.235Z,94171.59
2022-11-05T09:28:20.415Z,94171.59
2022-11-05T09:30:22.110Z,94174.03
2022-11-05T09:32:23.793Z,94167.56
2022-11-05T09:34:25.395Z,94167.13
2022-11-05T09:36:27.202Z,94161.59
2022-11-05T09:38:28.919Z,94154.44
2022-11-05T09:40:32.532Z,94161.28
2022-11-05T09:42:42.353Z,94158.97
2022-11-05T09:44:51.175Z,94159.91
2022-11-05T09:46:59.723Z,94155.72
2022-11-05T09:49:07.775Z,94159.00
2022-11-05T09:51:11.572Z,94152.66
2022-11-05T09:53:16.254Z,94150.34
2022-11-05T09:55:32.204Z,94156.19
2022-11-05T09:57:46.539Z,94159.25
2022-11-05T09:59:53.257Z,94153.75
2022-11-05T10:02:02.967Z,94158.38
2022-11-05T10:04:18.422Z,94152.59
2022-11-05T10:06:22.504Z,94145.09
2022-11-05T10:08:28.956Z,94144.38
2022-11-05T10:10:30.547Z,94147.31
2022-11-05T10:12:36.623Z,94142.16
2022-11-05T10:14:42.787Z,94144.66
2022-11-05T10:16:49.148Z,94135.59
2022-11-05T10:18:59.223Z,94132.75
2022-11-05T10:21:01.166Z,94133.28
2022-11-05T10:23:10.374Z,94134.47
2022-11-05T10:25:21.207Z,94138.56
2022-11-05T10:27:27.791Z,94136.28
2022-11-05T10:29:32.691Z,94127.34
2022-11-05T10:31:36.343Z,94130.97
2022-11-05T10:33:45.150Z,94131.94
2022-11-05T10:35:50.573Z,94135.19
2022-11-05T10:37:53.681Z,94131.09
2022-11-05T10:39:55.629Z,94136.78
2022-11-05T10:42:34.281Z,94127.13
2022-11-05T10:44:40.328Z,94132.72
2022-11-05T10:47:08.909Z,94131.41
2022-11-05T10:49:19.707Z,94133.84
2022-11-05T10:51:21.387Z,94126.09
2022-11-05T10:53:27.823Z,94121.56
2022-11-05T10:55:32.780Z,94126.53
2022-11-05T10:57:39.634Z,94125.44
2022-11-05T10:59:41.553Z,94120.06
2022-11-05T11:01:43.831Z,94116.72
2022-11-05T11:03:51.302Z,94113.56
2022-11-05T11:05:59.888Z,94113.78
2022-11-05T11:08:10.568Z,94106.41
2022-11-05T11:10:22.584Z,94099.75
2022-11-05T11:12:27.539Z,94104.75
2022-11-05T11:14:29.437Z,94111.22
2022-11-05T11:16:38.694Z,94101.34
2022-11-05T11:18:43.119Z,94107.38
2022-11-05T11:20:46.625Z,94099.81
2022-11-05T11:23:15.090Z,94105.47
2022-11-05T11:25:29.483Z,94103.75
2022-11-05T11:27:33.750Z,94096.63
2022-11-05T11:29:42.884Z,94102.28
2022-11-05T11:31:48.083Z,94100.22
2022-11-05T11:33:53.342Z,94100.81
2022-11-05T11:35:55.334Z,94098.16
2022-11-05T11:37:57.864Z,94100.81
2022-11-05T11:40:05.896Z,94095.97
2022-11-05T11:42:14.258Z,94092.84
2022-11-05T11:44:20.178Z,94097.13
2022-11-05T11:46:21.924Z,94100.38
2022-11-05T11:48:29.591Z,94097.28
2022-11-05T11:50:38.798Z,94100.97
2022-11-05T11:52:40.771Z,94094.81
2022-11-05T11:54:42.655Z,94088.91
2022-11-05T11:56:46.681Z,94087.59
2022-11-05T11:58:52.101Z,94080.50
2022-11-05T12:01:09.317Z,94081.47
2022-11-05T12:03:11.246Z,94086.69
2022-11-05T12:05:31.465Z,94085.22
2022-11-05T12:07:52.904Z,94083.75
2022-11-05T12:10:04.315Z,94083.28
2022-11-05T12:12:11.155Z,94083.09
2022-11-05T12:14:25.016Z,94082.28
2022-11-05T12:16:35.415Z,94079.63
2022-11-05T12:18:54.537Z,94073.28
2022-11-05T12:21:01.924Z,94084.47
2022-11-05T12:23:44.068Z,94080.81
2022-11-05T12:26:03.411Z,94076.53
2022-11-05T12:28:19.642Z,94077.56
2022-11-05T12:30:22.082Z,94078.16
2022-11-05T12:32:59.207Z,94071.34
2022-11-05T12:35:09.891Z,94070.91
2022-11-05T12:37:26.625Z,94079.47
2022-11-05T12:39:53.164Z,94081.06
2022-11-05T12:42:02.355Z,94076.34
2022-11-05T12:44:16.057Z,94072.69
2022-11-05T12:46:40.506Z,94083.28
2022-11-05T12:48:42.059Z,94077.41
2022-11-05T12:50:51.385Z,94081.06
2022-11-05T12:53:11.962Z,94085.78
2022-11-05T12:55:20.398Z,94073.78
2022-11-05T12:57:22.892Z,94079.75
2022-11-05T12:59:27.564Z,94072.25
2022-11-05T13:01:37.611Z,94071.44
2022-11-05T13:03:43.852Z,94074.31
2022-11-05T13:05:50.005Z,94072.69
2022-11-05T13:07:58.393Z,94075.56
2022-11-05T13:10:23.720Z,94074.41
2022-11-05T13:12:27.673Z,94075.44
2022-11-05T13:14:36.352Z,94073.00
2022-11-05T13:16:41.881Z,94073.81
2022-11-05T13:18:48.443Z,94071.38
2022-11-05T13:20:51.575Z,94072.41
2022-11-05T13:23:00.876Z,94076.09
2022-11-05T13:25:11.014Z,94069.16
2022-11-05T13:27:21.441Z,94065.91
2022-11-05T13:29:32.147Z,94072.25
2022-11-05T13:31:39.971Z,94072.47
2022-11-05T13:33:44.063Z,94084.34
2022-11-05T13:36:13.072Z,94081.91
2022-11-05T13:38:44.131Z,94083.38
2022-11-05T13:41:23.093Z,94072.84
2022-11-05T13:43:52.635Z,94086.56
2022-11-05T13:46:22.645Z,94081.25
2022-11-05T13:48:44.780Z,94083.91
2022-11-05T13:51:14.109Z,94085.97
2022-11-05T13:53:30.996Z,94077.41
2022-11-05T13:55:54.263Z,94075.81
2022-11-05T13:59:03.691Z,94083.16
2022-11-05T14:01:34.630Z,94078.88
2022-11-05T14:03:37.252Z,94081.53
2022-11-05T14:05:41.462Z,94074.63
2022-11-05T14:07:47.285Z,94075.44
2022-11-05T14:09:59.898Z,94075.22
2022-11-05T14:12:01.969Z,94086.41
2022-11-05T14:14:06.025Z,94083.75
2022-11-05T14:16:20.858Z,94092.28
2022-11-05T14:18:25.619Z,94090.66
2022-11-05T14:20:32.976Z,94086.16
2022-11-05T14:22:38.362Z,94088.81
2022-11-05T14:24:43.452Z,94091.91
2022-11-05T14:26:45.324Z,94089.47
2022-11-05T14:28:51.578Z,94085.22
2022-11-05T14:30:53.553Z,94080.94
2022-11-05T14:33:03.551Z,94082.78
2022-11-05T14:35:17.464Z,94090.34
2022-11-05T14:37:23.826Z,94086.53
2022-11-05T14:39:28.529Z,94085.13
2022-11-05T14:41:30.181Z,94090.88
2022-11-05T14:43:33.109Z,94087.00
2022-11-05T14:45:37.542Z,94083.16
2022-11-05T14:47:42.256Z,94081.19
2022-11-05T14:49:53.593Z,94083.25
2022-11-05T14:51:59.979Z,94083.66
2022-11-05T14:54:22.821Z,94083.06
2022-11-05T14:56:24.431Z,94084.31
2022-11-05T14:58:31.934Z,94084.75
2022-11-05T15:00:36.531Z,94078.88
2022-11-05T15:02:38.555Z,94092.75
2022-11-05T15:04:45.587Z,94092.22
2022-11-05T15:07:22.441Z,94086.97
2022-11-05T15:09:35.372Z,94079.47
2022-11-05T15:11:45.950Z,94074.00
2022-11-05T15:13:53.519Z,94079.50
2022-11-05T15:15:55.190Z,94075.25
2022-11-05T15:18:30.513Z,94086.84
2022-11-05T15:20:49.065Z,94086.91
2022-11-05T15:22:59.715Z,94086.16
2022-11-05T15:25:01.563Z,94090.88
2022-11-05T15:27:25.014Z,94085.81
2022-11-05T15:29:28.902Z,94077.88
2022-11-05T15:31:41.116Z,94082.41
2022-11-05T15:33:44.819Z,94079.16
2022-11-05T15:35:46.262Z,94079.16
2022-11-05T15:37:54.605Z,94082.84
2022-11-05T15:39:59.089Z,94088.75
2022-11-05T15:42:04.880Z,94082.41
2022-11-05T15:44:06.546Z,94082.25
2022-11-05T15:46:15.515Z,94085.94
2022-11-05T15:48:19.591Z,94084.19
2022-11-05T15:50:21.304Z,94096.22
2022-11-05T15:52:36.391Z,94091.94
2022-11-05T15:54:38.337Z,94097.22
2022-11-05T15:56:48.223Z,94086.13
2022-11-05T15:58:54.859Z,94095.06
2022-11-05T16:00:56.616Z,94099.38
2022-11-05T16:03:04.485Z,94094.09
2022-11-05T16:05:12.666Z,94093.66
2022-11-05T16:07:14.613Z,94089.78
2022-11-05T16:09:31.048Z,94090.63
2022-11-05T16:11:32.648Z,94087.97
2022-11-05T16:13:35.841Z,94100.34
2022-11-05T16:15:37.714Z,94094.06
2022-11-05T16:17:57.559Z,94102.19
2022-11-05T16:19:59.353Z,94095.53
2022-11-05T16:22:05.658Z,94102.25
2022-11-05T16:24:26.524Z,94103.25
2022-11-05T16:27:00.797Z,94097.56
2022-11-05T16:28:53.004Z,94100.63
2022-11-05T16:30:59.727Z,94107.31
2022-11-05T16:33:05.885Z,94103.44
2022-11-05T16:35:15.965Z,94114.41
2022-11-05T16:37:19.540Z,94109.72
2022-11-05T16:39:21.186Z,94098.78
2022-11-05T16:41:23.246Z,94106.91
2022-11-05T16:43:26.127Z,94113.81
2022-11-05T16:45:27.783Z,94112.78
2022-11-05T16:47:31.207Z,94117.28
2022-11-05T16:49:32.878Z,94120.72
2022-11-05T16:51:34.511Z,94118.88
2022-11-05T16:53:36.099Z,94117.66
2022-11-05T16:55:39.653Z,94119.72
2022-11-05T16:57:43.512Z,94118.91
2022-11-05T16:59:45.103Z,94119.53
2022-11-05T17:01:50.326Z,94124.19
2022-11-05T17:03:54.642Z,94115.47
2022-11-05T17:05:56.292Z,94125.63
2022-11-05T17:07:58.564Z,94127.69
2022-11-05T17:10:00.179Z,94123.22
2022-11-05T17:12:02.500Z,94122.22
2022-11-05T17:14:04.149Z,94120.56
2022-11-05T17:16:05.905Z,94118.75
2022-11-05T17:18:07.689Z,94122.00
2022-11-05T17:20:14.887Z,94113.69
2022-11-05T17:22:16.527Z,94122.25
2022-11-05T17:24:18.167Z,94113.47
2022-11-05T17:26:19.805Z,94112.69
2022-11-05T17:28:21.553Z,94117.97
2022-11-05T17:30:23.697Z,94109.44
2022-11-05T17:32:25.421Z,94115.50
2022-11-05T17:34:27.080Z,94118.75
2022-11-05T17:36:28.776Z,94119.59
2022-11-05T17:38:30.396Z,94131.34
2022-11-05T17:40:34.050Z,94122.81
2022-11-05T17:42:35.714Z,94119.31
2022-11-05T17:44:37.821Z,94126.63
2022-11-05T17:46:39.392Z,94120.13
2022-11-05T17:48:41.506Z,94114.09
2022-11-05T17:50:45.090Z,94119.03
2022-11-05T17:52:46.926Z,94110.13
2022-11-05T17:54:48.657Z,94109.50
2022-11-05T17:56:50.229Z,94107.25
2022-11-05T17:58:51.909Z,94106.47
2022-11-05T18:00:53.548Z,94108.50
2022-11-05T18:02:55.208Z,94109.34
2022-11-05T18:04:56.998Z,94117.47
2022-11-05T18:06:58.591Z,94116.25
2022-11-05T18:09:00.237Z,94111.97
2022-11-05T18:11:02.369Z,94112.81
2022-11-05T18:13:04.022Z,94122.84
2022-11-05T18:15:06.403Z,94114.84
2022-11-05T18:17:08.649Z,94122.75
2022-11-05T18:19:10.268Z,94122.00
2022-11-05T18:21:12.195Z,94116.94
2022-11-05T18:23:14.516Z,94122.00
2022-11-05T18:25:17.371Z,94118.00
2022-11-05T18:27:19.066Z,94121.28
2022-11-05T18:29:20.895Z,94123.78
2022-11-05T18:31:22.896Z,94121.56
2022-11-05T18:33:24.609Z,94118.13
2022-11-05T18:35:26.264Z,94124.22
2022-11-05T18:37:27.905Z,94123.47
2022-11-05T18:39:29.792Z,94126.13
2022-11-05T18:41:31.581Z,94119.88
2022-11-05T18:43:33.229Z,94121.09
2022-11-05T18:45:35.069Z,94120.28
2022-11-05T18:47:36.795Z,94120.28
2022-11-05T18:49:39.547Z,94119.66
2022-11-05T18:51:41.177Z,94120.91
2022-11-05T18:53:43.340Z,94122.34
2022-11-05T18:55:44.982Z,94124.38
2022-11-05T18:57:46.595Z,94133.28
2022-11-05T18:59:48.246Z,94135.09
2022-11-05T19:01:50.104Z,94133.88
2022-11-05T19:03:52.175Z,94135.91
2022-11-05T19:05:53.728Z,94142.38
2022-11-05T19:07:55.447Z,94135.69
2022-11-05T19:09:57.054Z,94137.72
2022-11-05T19:11:58.772Z,94144.38
2022-11-05T19:14:00.660Z,94140.84
2022-11-05T19:16:02.689Z,94139.66
2022-11-05T19:18:04.318Z,94138.44
2022-11-05T19:20:06.977Z,94131.94
2022-11-05T19:22:08.586Z,94134.19
2022-11-05T19:24:10.394Z,94133.41
2022-11-05T19:26:17.458Z,94129.19
2022-11-05T19:28:21.847Z,94128.97
2022-11-05T19:30:23.820Z,94136.31
2022-11-05T19:32:25.518Z,94133.06
2022-11-05T19:34:27.322Z,94135.06
2022-11-05T19:36:30.042Z,94138.72
2022-11-05T19:38:31.675Z,94139.94
2022-11-05T19:40:33.249Z,94139.13
2022-11-05T19:42:34.925Z,94137.91
2022-11-05T19:44:36.727Z,94137.31
2022-11-05T19:46:38.540Z,94132.47
2022-11-05T19:48:40.200Z,94131.25
2022-11-05T19:50:43.160Z,94131.69
2022-11-05T19:52:44.849Z,94133.28
2022-11-05T19:54:46.466Z,94127.41
2022-11-05T19:56:50.084Z,94140.59
2022-11-05T19:58:53.222Z,94149.53
2022-11-05T20:00:55.961Z,94136.34
2022-11-05T20:02:57.783Z,94147.28
2022-11-05T20:04:59.528Z,94153.94
2022-11-05T20:07:01.129Z,94156.78
2022-11-05T20:09:20.976Z,94160.59
2022-11-05T20:11:23.599Z,94158.38
2022-11-05T20:13:25.239Z,94155.75
2022-11-05T20:15:27.039Z,94159.09
2022-11-05T20:17:28.888Z,94159.16
2022-11-05T20:19:30.648Z,94171.72
2022-11-05T20:21:32.909Z,94165.94
2022-11-05T20:23:36.064Z,94168.56
2022-11-05T20:25:37.717Z,94166.53
2022-11-05T20:27:40.246Z,94164.06
2022-11-05T20:29:42.968Z,94161.31
2022-11-05T20:31:44.548Z,94168.50
2022-11-05T20:33:46.311Z,94164.31
2022-11-05T20:35:48.670Z,94168.09
2022-11-05T20:37:53.974Z,94157.13
2022-11-05T20:39:56.019Z,94162.41
2022-11-05T20:41:57.669Z,94165.25
2022-11-05T20:43:59.521Z,94166.09
2022-11-05T20:46:01.184Z,94175.88
2022-11-05T20:48:02.786Z,94171.44
2022-11-05T20:50:05.472Z,94163.59
2022-11-05T20:52:07.540Z,94170.09
2022-11-05T20:54:09.739Z,94166.91
2022-11-05T20:56:26.038Z,94168.31
2022-11-05T20:58:28.285Z,94163.84
2022-11-05T21:00:29.862Z,94167.50
2022-11-05T21:02:31.543Z,94169.94
2022-11-05T21:04:33.201Z,94175.41
2022-11-05T21:06:35.921Z,94178.06
2022-11-05T21:08:37.780Z,94182.31
2022-11-05T21:10:39.373Z,94179.00
2022-11-05T21:12:42.839Z,94175.31
2022-11-05T21:14:44.606Z,94176.31
2022-11-05T21:16:46.221Z,94179.56
2022-11-05T21:18:48.302Z,94179.16
2022-11-05T21:20:50.272Z,94171.88
2022-11-05T21:22:51.863Z,94175.94
2022-11-05T21:24:53.673Z,94171.69
2022-11-05T21:26:55.389Z,94169.25
2022-11-05T21:28:57.006Z,94171.88
2022-11-05T21:31:02.743Z,94174.69
2022-11-05T21:33:05.383Z,94177.94
2022-11-05T21:35:07.374Z,94181.66
2022-11-05T21:37:09.020Z,94180.47
2022-11-05T21:39:13.741Z,94182.91
2022-11-05T21:41:15.504Z,94175.31
2022-11-05T21:43:17.309Z,94173.53
2022-11-05T21:45:18.884Z,94175.97
2022-11-05T21:47:20.577Z,94173.88
2022-11-05T21:49:22.155Z,94174.63
2022-11-05T21:51:42.532Z,94174.19
2022-11-05T21:54:03.278Z,94173.75
2022-11-05T21:56:26.032Z,94176.03
2022-11-05T21:58:46.087Z,94177.56
2022-11-05T22:00:47.797Z,94181.97
2022-11-05T22:02:49.734Z,94189.75
2022-11-05T22:04:53.050Z,94182.16
2022-11-05T22:06:54.912Z,94183.66
2022-11-05T22:08:56.511Z,94188.44
2022-11-05T22:10:58.146Z,94180.25
2022-11-05T22:13:01.094Z,94178.09
2022-11-05T22:15:03.177Z,94176.97
2022-11-05T22:17:05.564Z,94176.00
2022-11-05T22:19:07.354Z,94171.63
2022-11-05T22:21:08.952Z,94179.19
2022-11-05T22:23:11.482Z,94178.41
2022-11-05T22:25:15.888Z,94174.41
2022-11-05T22:27:19.260Z,94165.91
2022-11-05T22:29:22.104Z,94175.25
2022-11-05T22:31:23.784Z,94161.72
2022-11-05T22:33:25.423Z,94158.06
2022-11-05T22:35:27.119Z,94163.31
2022-11-05T22:37:28.676Z,94165.59
2022-11-05T22:39:30.438Z,94169.66
2022-11-05T22:41:32.316Z,94163.34
2022-11-05T22:43:34.007Z,94171.88
2022-11-05T22:45:36.506Z,94165.81
2022-11-05T22:47:38.184Z,94163.53
2022-11-05T22:49:39.949Z,94167.44
2022-11-05T22:51:41.599Z,94171.31
2022-11-05T22:53:43.684Z,94171.03
2022-11-05T22:55:45.276Z,94167.63
2022-11-05T22:57:46.899Z,94173.09
2022-11-05T22:59:48.544Z,94182.53
2022-11-05T23:01:50.363Z,94184.34
2022-11-05T23:03:53.195Z,94178.13
2022-11-05T23:05:58.793Z,94189.63
2022-11-05T23:08:18.898Z,94180.88
2022-11-05T23:10:39.262Z,94176.72
2022-11-05T23:12:43.219Z,94177.03
2022-11-05T23:14:44.800Z,94184.53
2022-11-05T23:17:05.245Z,94178.06
2022-11-05T23:19:25.586Z,94180.91
2022-11-05T23:21:46.017Z,94187.97
2022-11-05T23:24:05.858Z,94189.63
2022-11-05T23:26:27.468Z,94181.09
2022-11-05T23:28:29.035Z,94184.16
2022-11-05T23:30:30.647Z,94190.75
2022-11-05T23:32:32.838Z,94195.13
2022-11-05T23:34:36.127Z,94197.97
2022-11-05T23:36:56.276Z,94199.03
2022-11-05T23:38:58.088Z,94192.59
2022-11-05T23:41:21.861Z,94191.22
2022-11-05T23:43:42.097Z,94189.84
2022-11-05T23:46:03.202Z,94183.78
2022-11-05T23:48:34.944Z,94182.50
2022-11-05T23:50:39.740Z,94181.91
2022-11-05T23:52:41.835Z,94184.66
2022-11-05T23:54:43.480Z,94190.31
2022-11-05T23:56:45.927Z,94190.19
2022-11-05T23:58:47.588Z,94193.53
